Forside
METAR-TAF:

METAR-TAF

Lufthavne :

Ljungbyhed, Sverige

Breddekreds: 56-04N, længdekreds: 013-12E, højde: 43 m

Aktuelle vejr

Denne rapport blev lavet for 23 minutter siden, kl. 15:20 UTC
Vind 10 kt fra syd
Temperatur 15°C
Fugtighed 29%
Tryk 1023 hPa
Sigt 10 km eller mere

METAR: ESTL 081520Z AUTO 19010KT 9999 NCD 15/M03 Q1023

Tid: 17:43 (15:43 UTC)

Vejrudsigter

Denne rapport blev lavet for 4 timer og 34 minutter siden, kl. 11:09 UTC
Foreløbig gælder fra 08 på 12 UTC til 08 på 15 UTC
Vind 10 kt fra sydvest
Sigt 10 km eller mere
ingen skyer under 1500m og ingen cumulonimbus

TAF: ESTL 081109Z 0812/0815 22010KT CAVOK

Vejrobservationer og prognoser fra mere end 4000 lufthavne (METAR og TAF).

De gule og røde prikker repræsenterer de meteorologiske stationer.

Flyt musen over at se navnet på stationen.

Så klik over at se vejr observationer og prognoser.

At skifte det kort: Klik på de grønne knapper med et sort kors for at zoome ind; på den grønne knap med en bindestreg for at zoome ud; eller på de grønne pile for tilstødende kort.


METAR-TAF: